sensor_id;sensor_type;location;lat;lon;timestamp;P1;durP1;ratioP1;P2;durP2;ratioP2
61915;SDS011;47868;51.326;6.550;2022-10-17T00:01:11;5.60;;;5.10;;
61915;SDS011;47868;51.326;6.550;2022-10-17T00:03:37;9.07;;;5.32;;
61915;SDS011;47868;51.326;6.550;2022-10-17T00:06:08;6.20;;;5.60;;
61915;SDS011;47868;51.326;6.550;2022-10-17T00:08:35;11.95;;;5.78;;
61915;SDS011;47868;51.326;6.550;2022-10-17T00:11:03;9.88;;;5.63;;
61915;SDS011;47868;51.326;6.550;2022-10-17T00:13:29;6.63;;;5.80;;
61915;SDS011;47868;51.326;6.550;2022-10-17T00:15:56;9.48;;;5.75;;
61915;SDS011;47868;51.326;6.550;2022-10-17T00:18:22;8.88;;;6.03;;
61915;SDS011;47868;51.326;6.550;2022-10-17T00:20:48;8.25;;;6.28;;
61915;SDS011;47868;51.326;6.550;2022-10-17T00:23:14;6.95;;;6.35;;
61915;SDS011;47868;51.326;6.550;2022-10-17T00:25:40;7.55;;;6.32;;
61915;SDS011;47868;51.326;6.550;2022-10-17T00:28:13;7.90;;;5.93;;
61915;SDS011;47868;51.326;6.550;2022-10-17T00:30:39;8.52;;;6.13;;
61915;SDS011;47868;51.326;6.550;2022-10-17T00:33:06;9.23;;;6.28;;
61915;SDS011;47868;51.326;6.550;2022-10-17T00:35:32;8.35;;;6.35;;
61915;SDS011;47868;51.326;6.550;2022-10-17T00:37:58;8.00;;;6.40;;
61915;SDS011;47868;51.326;6.550;2022-10-17T00:40:24;6.53;;;6.00;;
61915;SDS011;47868;51.326;6.550;2022-10-17T00:42:50;8.05;;;6.63;;
61915;SDS011;47868;51.326;6.550;2022-10-17T00:47:44;8.30;;;6.43;;
61915;SDS011;47868;51.326;6.550;2022-10-17T00:50:11;8.40;;;6.20;;
61915;SDS011;47868;51.326;6.550;2022-10-17T00:52:38;9.98;;;6.50;;
61915;SDS011;47868;51.326;6.550;2022-10-17T00:55:16;7.75;;;6.40;;
61915;SDS011;47868;51.326;6.550;2022-10-17T00:57:43;7.18;;;6.45;;
61915;SDS011;47868;51.326;6.550;2022-10-17T01:00:10;7.40;;;6.70;;
61915;SDS011;47868;51.326;6.550;2022-10-17T01:02:37;10.55;;;6.30;;
61915;SDS011;47868;51.326;6.550;2022-10-17T01:05:03;9.23;;;6.28;;
61915;SDS011;47868;51.326;6.550;2022-10-17T01:07:30;9.18;;;5.55;;
61915;SDS011;47868;51.326;6.550;2022-10-17T01:09:56;11.32;;;7.03;;
61915;SDS011;47868;51.326;6.550;2022-10-17T01:12:23;9.35;;;6.53;;
61915;SDS011;47868;51.326;6.550;2022-10-17T01:17:28;9.20;;;6.70;;
61915;SDS011;47868;51.326;6.550;2022-10-17T01:22:45;7.07;;;6.13;;
61915;SDS011;47868;51.326;6.550;2022-10-17T01:28:04;8.48;;;6.63;;
61915;SDS011;47868;51.326;6.550;2022-10-17T01:30:46;8.73;;;6.20;;
61915;SDS011;47868;51.326;6.550;2022-10-17T01:33:14;11.32;;;6.85;;
61915;SDS011;47868;51.326;6.550;2022-10-17T01:38:19;14.73;;;6.82;;
61915;SDS011;47868;51.326;6.550;2022-10-17T01:40:55;9.35;;;5.78;;
61915;SDS011;47868;51.326;6.550;2022-10-17T01:43:25;6.40;;;5.75;;
61915;SDS011;47868;51.326;6.550;2022-10-17T01:45:57;9.10;;;6.20;;
61915;SDS011;47868;51.326;6.550;2022-10-17T01:48:25;7.80;;;6.18;;
61915;SDS011;47868;51.326;6.550;2022-10-17T01:50:58;7.03;;;6.30;;
61915;SDS011;47868;51.326;6.550;2022-10-17T01:53:27;7.22;;;6.53;;
61915;SDS011;47868;51.326;6.550;2022-10-17T01:55:55;7.03;;;6.25;;
61915;SDS011;47868;51.326;6.550;2022-10-17T01:58:30;6.63;;;5.88;;
61915;SDS011;47868;51.326;6.550;2022-10-17T02:00:58;9.27;;;5.97;;
61915;SDS011;47868;51.326;6.550;2022-10-17T02:03:26;6.82;;;6.10;;
61915;SDS011;47868;51.326;6.550;2022-10-17T02:05:53;7.50;;;6.43;;
61915;SDS011;47868;51.326;6.550;2022-10-17T02:08:38;7.07;;;5.97;;
61915;SDS011;47868;51.326;6.550;2022-10-17T02:11:05;9.32;;;6.18;;
61915;SDS011;47868;51.326;6.550;2022-10-17T02:13:56;7.18;;;6.47;;
61915;SDS011;47868;51.326;6.550;2022-10-17T02:29:54;9.98;;;6.70;;
61915;SDS011;47868;51.326;6.550;2022-10-17T02:32:30;9.10;;;6.10;;
61915;SDS011;47868;51.326;6.550;2022-10-17T02:34:59;9.98;;;6.35;;
61915;SDS011;47868;51.326;6.550;2022-10-17T02:37:27;6.95;;;6.35;;
61915;SDS011;47868;51.326;6.550;2022-10-17T02:39:54;7.80;;;6.35;;
61915;SDS011;47868;51.326;6.550;2022-10-17T02:42:21;9.50;;;5.60;;
61915;SDS011;47868;51.326;6.550;2022-10-17T02:44:48;10.73;;;6.50;;
61915;SDS011;47868;51.326;6.550;2022-10-17T02:47:22;8.80;;;5.93;;
61915;SDS011;47868;51.326;6.550;2022-10-17T02:49:50;7.82;;;6.40;;
61915;SDS011;47868;51.326;6.550;2022-10-17T02:52:27;10.75;;;6.38;;
61915;SDS011;47868;51.326;6.550;2022-10-17T02:55:00;12.30;;;6.45;;
61915;SDS011;47868;51.326;6.550;2022-10-17T02:57:37;10.02;;;6.32;;
61915;SDS011;47868;51.326;6.550;2022-10-17T03:00:05;10.95;;;6.35;;
61915;SDS011;47868;51.326;6.550;2022-10-17T03:02:43;10.35;;;5.82;;
61915;SDS011;47868;51.326;6.550;2022-10-17T03:05:10;8.75;;;6.72;;
61915;SDS011;47868;51.326;6.550;2022-10-17T03:07:36;8.98;;;5.85;;
61915;SDS011;47868;51.326;6.550;2022-10-17T03:10:03;7.43;;;5.88;;
61915;SDS011;47868;51.326;6.550;2022-10-17T03:12:29;7.57;;;6.55;;
61915;SDS011;47868;51.326;6.550;2022-10-17T03:14:55;9.25;;;5.72;;
61915;SDS011;47868;51.326;6.550;2022-10-17T03:17:21;10.68;;;6.20;;
61915;SDS011;47868;51.326;6.550;2022-10-17T03:19:47;6.85;;;5.90;;
61915;SDS011;47868;51.326;6.550;2022-10-17T03:22:13;7.07;;;6.07;;
61915;SDS011;47868;51.326;6.550;2022-10-17T03:24:39;7.00;;;6.30;;
61915;SDS011;47868;51.326;6.550;2022-10-17T03:27:05;8.57;;;6.10;;
61915;SDS011;47868;51.326;6.550;2022-10-17T03:29:31;6.80;;;6.15;;
61915;SDS011;47868;51.326;6.550;2022-10-17T03:31:57;7.32;;;6.30;;
61915;SDS011;47868;51.326;6.550;2022-10-17T03:34:23;8.70;;;6.53;;
61915;SDS011;47868;51.326;6.550;2022-10-17T03:36:49;9.57;;;5.80;;
61915;SDS011;47868;51.326;6.550;2022-10-17T03:39:15;8.18;;;6.30;;
61915;SDS011;47868;51.326;6.550;2022-10-17T03:41:42;6.85;;;6.00;;
61915;SDS011;47868;51.326;6.550;2022-10-17T03:44:08;7.22;;;6.13;;
61915;SDS011;47868;51.326;6.550;2022-10-17T03:46:34;6.05;;;5.57;;
61915;SDS011;47868;51.326;6.550;2022-10-17T03:49:00;8.13;;;6.20;;
61915;SDS011;47868;51.326;6.550;2022-10-17T03:51:26;12.95;;;6.38;;
61915;SDS011;47868;51.326;6.550;2022-10-17T03:53:52;9.65;;;6.20;;
61915;SDS011;47868;51.326;6.550;2022-10-17T03:56:19;7.57;;;6.28;;
61915;SDS011;47868;51.326;6.550;2022-10-17T03:58:45;8.60;;;5.80;;
61915;SDS011;47868;51.326;6.550;2022-10-17T04:01:12;8.93;;;6.18;;
61915;SDS011;47868;51.326;6.550;2022-10-17T04:03:39;7.80;;;5.72;;
61915;SDS011;47868;51.326;6.550;2022-10-17T04:06:05;7.85;;;5.93;;
61915;SDS011;47868;51.326;6.550;2022-10-17T04:08:31;9.23;;;6.30;;
61915;SDS011;47868;51.326;6.550;2022-10-17T04:10:58;11.63;;;6.03;;
61915;SDS011;47868;51.326;6.550;2022-10-17T04:13:24;10.73;;;6.55;;
61915;SDS011;47868;51.326;6.550;2022-10-17T04:15:54;10.80;;;6.15;;
61915;SDS011;47868;51.326;6.550;2022-10-17T04:18:20;10.52;;;6.40;;
61915;SDS011;47868;51.326;6.550;2022-10-17T04:20:46;9.25;;;6.10;;
61915;SDS011;47868;51.326;6.550;2022-10-17T04:23:12;6.53;;;5.93;;
61915;SDS011;47868;51.326;6.550;2022-10-17T04:25:39;8.20;;;6.50;;
61915;SDS011;47868;51.326;6.550;2022-10-17T04:28:05;9.40;;;5.60;;
61915;SDS011;47868;51.326;6.550;2022-10-17T04:30:31;9.85;;;5.50;;
61915;SDS011;47868;51.326;6.550;2022-10-17T04:32:57;10.00;;;6.75;;
61915;SDS011;47868;51.326;6.550;2022-10-17T04:35:23;8.55;;;6.38;;
61915;SDS011;47868;51.326;6.550;2022-10-17T04:37:49;8.90;;;5.90;;
61915;SDS011;47868;51.326;6.550;2022-10-17T04:40:15;10.10;;;6.13;;
61915;SDS011;47868;51.326;6.550;2022-10-17T04:42:41;9.77;;;6.18;;
61915;SDS011;47868;51.326;6.550;2022-10-17T04:45:07;8.82;;;5.80;;
61915;SDS011;47868;51.326;6.550;2022-10-17T04:47:33;7.05;;;6.40;;
61915;SDS011;47868;51.326;6.550;2022-10-17T04:49:59;6.65;;;6.00;;
61915;SDS011;47868;51.326;6.550;2022-10-17T04:52:25;8.80;;;6.35;;
61915;SDS011;47868;51.326;6.550;2022-10-17T04:54:51;7.95;;;6.15;;
61915;SDS011;47868;51.326;6.550;2022-10-17T04:57:17;8.85;;;6.50;;
61915;SDS011;47868;51.326;6.550;2022-10-17T04:59:44;11.57;;;6.07;;
61915;SDS011;47868;51.326;6.550;2022-10-17T05:02:10;8.35;;;5.88;;
61915;SDS011;47868;51.326;6.550;2022-10-17T05:04:36;8.02;;;6.28;;
61915;SDS011;47868;51.326;6.550;2022-10-17T05:07:02;9.75;;;6.43;;
61915;SDS011;47868;51.326;6.550;2022-10-17T05:09:28;11.73;;;6.32;;
61915;SDS011;47868;51.326;6.550;2022-10-17T05:11:54;9.52;;;6.53;;
61915;SDS011;47868;51.326;6.550;2022-10-17T05:14:20;8.35;;;6.28;;
61915;SDS011;47868;51.326;6.550;2022-10-17T05:16:46;10.85;;;6.72;;
61915;SDS011;47868;51.326;6.550;2022-10-17T05:19:12;7.60;;;6.55;;
61915;SDS011;47868;51.326;6.550;2022-10-17T05:21:38;9.73;;;6.55;;
61915;SDS011;47868;51.326;6.550;2022-10-17T05:24:05;8.35;;;7.07;;
61915;SDS011;47868;51.326;6.550;2022-10-17T05:26:31;10.57;;;7.20;;
61915;SDS011;47868;51.326;6.550;2022-10-17T05:28:58;7.10;;;6.50;;
61915;SDS011;47868;51.326;6.550;2022-10-17T05:31:26;8.68;;;6.40;;
61915;SDS011;47868;51.326;6.550;2022-10-17T05:33:52;8.30;;;6.65;;
61915;SDS011;47868;51.326;6.550;2022-10-17T05:36:18;11.82;;;6.97;;
61915;SDS011;47868;51.326;6.550;2022-10-17T05:38:48;15.10;;;7.35;;
61915;SDS011;47868;51.326;6.550;2022-10-17T05:41:15;7.00;;;6.40;;
61915;SDS011;47868;51.326;6.550;2022-10-17T05:43:41;8.90;;;7.13;;
61915;SDS011;47868;51.326;6.550;2022-10-17T05:46:07;12.88;;;7.57;;
61915;SDS011;47868;51.326;6.550;2022-10-17T05:48:33;10.20;;;7.45;;
61915;SDS011;47868;51.326;6.550;2022-10-17T05:51:02;13.38;;;7.25;;
61915;SDS011;47868;51.326;6.550;2022-10-17T05:53:29;11.68;;;7.05;;
61915;SDS011;47868;51.326;6.550;2022-10-17T05:55:59;10.32;;;7.28;;
61915;SDS011;47868;51.326;6.550;2022-10-17T05:58:25;9.05;;;6.90;;
61915;SDS011;47868;51.326;6.550;2022-10-17T06:00:56;14.30;;;7.45;;
61915;SDS011;47868;51.326;6.550;2022-10-17T06:03:22;10.82;;;7.05;;
61915;SDS011;47868;51.326;6.550;2022-10-17T06:05:48;8.15;;;6.50;;
61915;SDS011;47868;51.326;6.550;2022-10-17T06:08:15;8.88;;;6.97;;
61915;SDS011;47868;51.326;6.550;2022-10-17T06:10:41;9.55;;;6.72;;
61915;SDS011;47868;51.326;6.550;2022-10-17T06:13:07;8.18;;;6.93;;
61915;SDS011;47868;51.326;6.550;2022-10-17T06:15:34;9.00;;;7.82;;
61915;SDS011;47868;51.326;6.550;2022-10-17T06:18:00;8.48;;;7.65;;
61915;SDS011;47868;51.326;6.550;2022-10-17T06:20:26;7.40;;;6.20;;
61915;SDS011;47868;51.326;6.550;2022-10-17T06:22:52;7.70;;;6.47;;
61915;SDS011;47868;51.326;6.550;2022-10-17T06:25:18;8.90;;;6.90;;
61915;SDS011;47868;51.326;6.550;2022-10-17T06:27:44;11.32;;;6.30;;
61915;SDS011;47868;51.326;6.550;2022-10-17T06:30:10;8.85;;;6.25;;
61915;SDS011;47868;51.326;6.550;2022-10-17T06:32:36;8.57;;;6.00;;
61915;SDS011;47868;51.326;6.550;2022-10-17T06:35:02;10.18;;;6.05;;
61915;SDS011;47868;51.326;6.550;2022-10-17T06:37:32;9.32;;;6.18;;
61915;SDS011;47868;51.326;6.550;2022-10-17T06:39:58;6.88;;;6.28;;
61915;SDS011;47868;51.326;6.550;2022-10-17T06:42:24;9.15;;;6.63;;
61915;SDS011;47868;51.326;6.550;2022-10-17T06:44:50;6.93;;;5.75;;
61915;SDS011;47868;51.326;6.550;2022-10-17T06:47:16;6.40;;;5.80;;
61915;SDS011;47868;51.326;6.550;2022-10-17T06:49:42;7.75;;;6.22;;
61915;SDS011;47868;51.326;6.550;2022-10-17T06:52:09;7.97;;;5.82;;
61915;SDS011;47868;51.326;6.550;2022-10-17T06:54:35;8.40;;;5.38;;
61915;SDS011;47868;51.326;6.550;2022-10-17T06:57:01;8.35;;;5.97;;
61915;SDS011;47868;51.326;6.550;2022-10-17T06:59:27;8.07;;;6.15;;
61915;SDS011;47868;51.326;6.550;2022-10-17T07:01:53;7.78;;;6.40;;
61915;SDS011;47868;51.326;6.550;2022-10-17T07:04:19;11.73;;;5.97;;
61915;SDS011;47868;51.326;6.550;2022-10-17T07:06:45;7.28;;;5.60;;
61915;SDS011;47868;51.326;6.550;2022-10-17T07:09:11;6.90;;;6.10;;
61915;SDS011;47868;51.326;6.550;2022-10-17T07:11:37;11.63;;;5.88;;
61915;SDS011;47868;51.326;6.550;2022-10-17T07:14:04;9.45;;;5.80;;
61915;SDS011;47868;51.326;6.550;2022-10-17T07:16:30;10.70;;;5.97;;
61915;SDS011;47868;51.326;6.550;2022-10-17T07:18:56;12.48;;;6.57;;
61915;SDS011;47868;51.326;6.550;2022-10-17T07:21:22;6.80;;;5.68;;
61915;SDS011;47868;51.326;6.550;2022-10-17T07:23:48;8.77;;;6.47;;
61915;SDS011;47868;51.326;6.550;2022-10-17T07:26:15;7.70;;;5.97;;
61915;SDS011;47868;51.326;6.550;2022-10-17T07:28:42;8.48;;;6.65;;
61915;SDS011;47868;51.326;6.550;2022-10-17T07:31:09;6.68;;;5.60;;
61915;SDS011;47868;51.326;6.550;2022-10-17T07:33:36;6.78;;;5.72;;
61915;SDS011;47868;51.326;6.550;2022-10-17T07:36:02;11.30;;;6.00;;
61915;SDS011;47868;51.326;6.550;2022-10-17T07:38:29;9.63;;;6.15;;
61915;SDS011;47868;51.326;6.550;2022-10-17T07:40:55;9.13;;;6.10;;
61915;SDS011;47868;51.326;6.550;2022-10-17T07:43:23;8.05;;;5.50;;
61915;SDS011;47868;51.326;6.550;2022-10-17T07:45:49;8.63;;;5.93;;
61915;SDS011;47868;51.326;6.550;2022-10-17T07:48:15;9.60;;;5.47;;
61915;SDS011;47868;51.326;6.550;2022-10-17T07:50:41;11.63;;;5.70;;
61915;SDS011;47868;51.326;6.550;2022-10-17T07:53:07;8.88;;;5.85;;
61915;SDS011;47868;51.326;6.550;2022-10-17T07:55:35;10.85;;;5.80;;
61915;SDS011;47868;51.326;6.550;2022-10-17T07:58:01;51.08;;;8.13;;
61915;SDS011;47868;51.326;6.550;2022-10-17T08:00:28;17.30;;;6.20;;
61915;SDS011;47868;51.326;6.550;2022-10-17T08:02:54;12.63;;;5.90;;
61915;SDS011;47868;51.326;6.550;2022-10-17T08:05:20;12.85;;;5.40;;
61915;SDS011;47868;51.326;6.550;2022-10-17T08:07:46;16.17;;;5.72;;
61915;SDS011;47868;51.326;6.550;2022-10-17T08:10:12;10.52;;;5.53;;
61915;SDS011;47868;51.326;6.550;2022-10-17T08:12:39;8.60;;;5.78;;
61915;SDS011;47868;51.326;6.550;2022-10-17T08:15:05;6.15;;;5.53;;
61915;SDS011;47868;51.326;6.550;2022-10-17T08:17:35;10.38;;;5.97;;
61915;SDS011;47868;51.326;6.550;2022-10-17T08:20:02;12.20;;;5.97;;
61915;SDS011;47868;51.326;6.550;2022-10-17T08:22:28;12.55;;;6.20;;
61915;SDS011;47868;51.326;6.550;2022-10-17T08:24:54;7.95;;;5.40;;
61915;SDS011;47868;51.326;6.550;2022-10-17T08:27:21;10.32;;;5.78;;
61915;SDS011;47868;51.326;6.550;2022-10-17T08:29:51;8.93;;;4.88;;
61915;SDS011;47868;51.326;6.550;2022-10-17T08:32:22;8.20;;;5.70;;
61915;SDS011;47868;51.326;6.550;2022-10-17T08:34:49;10.00;;;5.20;;
61915;SDS011;47868;51.326;6.550;2022-10-17T08:37:15;7.50;;;4.93;;
61915;SDS011;47868;51.326;6.550;2022-10-17T08:39:42;12.73;;;5.35;;
61915;SDS011;47868;51.326;6.550;2022-10-17T08:42:18;12.18;;;5.38;;
61915;SDS011;47868;51.326;6.550;2022-10-17T08:47:33;12.98;;;6.05;;
61915;SDS011;47868;51.326;6.550;2022-10-17T08:50:01;17.10;;;4.97;;
61915;SDS011;47868;51.326;6.550;2022-10-17T08:55:14;7.78;;;5.32;;
61915;SDS011;47868;51.326;6.550;2022-10-17T08:57:40;11.63;;;5.50;;
61915;SDS011;47868;51.326;6.550;2022-10-17T09:00:11;5.88;;;5.28;;
61915;SDS011;47868;51.326;6.550;2022-10-17T09:15:07;12.93;;;4.80;;
61915;SDS011;47868;51.326;6.550;2022-10-17T09:20:09;12.32;;;4.60;;
61915;SDS011;47868;51.326;6.550;2022-10-17T09:22:58;7.38;;;4.50;;
61915;SDS011;47868;51.326;6.550;2022-10-17T09:25:23;6.78;;;4.45;;
61915;SDS011;47868;51.326;6.550;2022-10-17T09:30:19;4.97;;;4.45;;
61915;SDS011;47868;51.326;6.550;2022-10-17T09:32:47;8.05;;;4.65;;
61915;SDS011;47868;51.326;6.550;2022-10-17T09:35:13;7.32;;;4.53;;
61915;SDS011;47868;51.326;6.550;2022-10-17T09:37:39;11.48;;;4.53;;
61915;SDS011;47868;51.326;6.550;2022-10-17T09:40:06;10.82;;;4.63;;
61915;SDS011;47868;51.326;6.550;2022-10-17T09:42:37;10.15;;;4.20;;
61915;SDS011;47868;51.326;6.550;2022-10-17T09:45:17;6.63;;;4.97;;
61915;SDS011;47868;51.326;6.550;2022-10-17T09:47:46;11.65;;;4.78;;
61915;SDS011;47868;51.326;6.550;2022-10-17T09:50:19;5.78;;;4.43;;
61915;SDS011;47868;51.326;6.550;2022-10-17T09:52:46;14.00;;;4.72;;
61915;SDS011;47868;51.326;6.550;2022-10-17T09:57:54;8.38;;;5.30;;
61915;SDS011;47868;51.326;6.550;2022-10-17T10:00:27;7.43;;;5.40;;
61915;SDS011;47868;51.326;6.550;2022-10-17T10:03:07;11.55;;;5.80;;
61915;SDS011;47868;51.326;6.550;2022-10-17T10:05:33;11.02;;;4.82;;
61915;SDS011;47868;51.326;6.550;2022-10-17T10:08:01;8.82;;;5.35;;
61915;SDS011;47868;51.326;6.550;2022-10-17T10:10:28;8.13;;;5.82;;
61915;SDS011;47868;51.326;6.550;2022-10-17T10:13:28;9.57;;;5.25;;
61915;SDS011;47868;51.326;6.550;2022-10-17T10:15:48;12.43;;;5.00;;
61915;SDS011;47868;51.326;6.550;2022-10-17T10:21:03;10.20;;;5.03;;
61915;SDS011;47868;51.326;6.550;2022-10-17T10:23:30;9.35;;;5.72;;
61915;SDS011;47868;51.326;6.550;2022-10-17T10:25:57;8.80;;;5.18;;
61915;SDS011;47868;51.326;6.550;2022-10-17T10:28:25;9.38;;;5.35;;
61915;SDS011;47868;51.326;6.550;2022-10-17T10:30:51;11.30;;;5.00;;
61915;SDS011;47868;51.326;6.550;2022-10-17T10:33:19;10.63;;;4.97;;
61915;SDS011;47868;51.326;6.550;2022-10-17T10:35:54;11.05;;;5.90;;
61915;SDS011;47868;51.326;6.550;2022-10-17T10:38:21;8.80;;;5.88;;
61915;SDS011;47868;51.326;6.550;2022-10-17T10:40:48;8.95;;;5.63;;
61915;SDS011;47868;51.326;6.550;2022-10-17T10:43:23;12.82;;;4.82;;
61915;SDS011;47868;51.326;6.550;2022-10-17T10:45:50;7.07;;;4.93;;
61915;SDS011;47868;51.326;6.550;2022-10-17T10:48:18;5.65;;;5.05;;
61915;SDS011;47868;51.326;6.550;2022-10-17T10:50:46;7.75;;;4.88;;
61915;SDS011;47868;51.326;6.550;2022-10-17T10:53:20;10.80;;;6.10;;
61915;SDS011;47868;51.326;6.550;2022-10-17T11:01:02;7.32;;;5.53;;
61915;SDS011;47868;51.326;6.550;2022-10-17T11:03:34;12.13;;;6.40;;
61915;SDS011;47868;51.326;6.550;2022-10-17T11:06:08;7.50;;;5.88;;
61915;SDS011;47868;51.326;6.550;2022-10-17T11:08:42;11.32;;;5.88;;
61915;SDS011;47868;51.326;6.550;2022-10-17T11:14:05;9.73;;;5.80;;
61915;SDS011;47868;51.326;6.550;2022-10-17T11:16:37;9.73;;;6.40;;
61915;SDS011;47868;51.326;6.550;2022-10-17T11:19:22;10.55;;;6.63;;
61915;SDS011;47868;51.326;6.550;2022-10-17T11:26:49;10.98;;;6.50;;
61915;SDS011;47868;51.326;6.550;2022-10-17T11:29:18;11.13;;;6.88;;
61915;SDS011;47868;51.326;6.550;2022-10-17T11:31:46;11.52;;;7.43;;
61915;SDS011;47868;51.326;6.550;2022-10-17T11:34:22;13.93;;;7.57;;
61915;SDS011;47868;51.326;6.550;2022-10-17T11:36:50;12.10;;;6.20;;
61915;SDS011;47868;51.326;6.550;2022-10-17T11:39:18;9.38;;;6.03;;
61915;SDS011;47868;51.326;6.550;2022-10-17T11:41:53;9.27;;;6.15;;
61915;SDS011;47868;51.326;6.550;2022-10-17T11:44:31;11.07;;;5.93;;
61915;SDS011;47868;51.326;6.550;2022-10-17T11:47:04;13.45;;;5.68;;
61915;SDS011;47868;51.326;6.550;2022-10-17T11:49:35;6.90;;;5.82;;
61915;SDS011;47868;51.326;6.550;2022-10-17T11:54:34;8.32;;;5.43;;
61915;SDS011;47868;51.326;6.550;2022-10-17T12:05:17;9.63;;;6.00;;
61915;SDS011;47868;51.326;6.550;2022-10-17T12:07:47;8.30;;;5.53;;
61915;SDS011;47868;51.326;6.550;2022-10-17T12:10:17;11.75;;;5.13;;
61915;SDS011;47868;51.326;6.550;2022-10-17T12:12:44;12.20;;;6.03;;
61915;SDS011;47868;51.326;6.550;2022-10-17T12:17:38;9.80;;;6.22;;
61915;SDS011;47868;51.326;6.550;2022-10-17T12:25:28;15.18;;;6.28;;
61915;SDS011;47868;51.326;6.550;2022-10-17T12:30:28;11.35;;;6.28;;
61915;SDS011;47868;51.326;6.550;2022-10-17T12:32:56;12.93;;;6.20;;
61915;SDS011;47868;51.326;6.550;2022-10-17T12:35:23;11.85;;;5.97;;
61915;SDS011;47868;51.326;6.550;2022-10-17T12:43:01;34.95;;;8.02;;
61915;SDS011;47868;51.326;6.550;2022-10-17T12:48:12;11.32;;;5.13;;
61915;SDS011;47868;51.326;6.550;2022-10-17T12:53:23;8.52;;;5.35;;
61915;SDS011;47868;51.326;6.550;2022-10-17T12:55:57;8.73;;;5.30;;
61915;SDS011;47868;51.326;6.550;2022-10-17T12:58:23;9.88;;;5.50;;
61915;SDS011;47868;51.326;6.550;2022-10-17T13:00:53;7.85;;;5.00;;
61915;SDS011;47868;51.326;6.550;2022-10-17T13:03:21;7.68;;;4.95;;
61915;SDS011;47868;51.326;6.550;2022-10-17T13:05:52;9.90;;;4.47;;
61915;SDS011;47868;51.326;6.550;2022-10-17T13:08:23;11.95;;;4.90;;
61915;SDS011;47868;51.326;6.550;2022-10-17T13:10:50;8.13;;;4.57;;
61915;SDS011;47868;51.326;6.550;2022-10-17T13:15:47;8.90;;;4.63;;
61915;SDS011;47868;51.326;6.550;2022-10-17T13:18:18;12.25;;;4.47;;
61915;SDS011;47868;51.326;6.550;2022-10-17T13:20:53;9.23;;;4.32;;
61915;SDS011;47868;51.326;6.550;2022-10-17T13:23:22;8.13;;;4.40;;
61915;SDS011;47868;51.326;6.550;2022-10-17T13:26:00;7.00;;;3.97;;
61915;SDS011;47868;51.326;6.550;2022-10-17T13:28:26;6.50;;;3.70;;
61915;SDS011;47868;51.326;6.550;2022-10-17T13:30:53;10.50;;;4.07;;
61915;SDS011;47868;51.326;6.550;2022-10-17T13:33:31;15.45;;;4.50;;
61915;SDS011;47868;51.326;6.550;2022-10-17T13:35:57;5.45;;;3.83;;
61915;SDS011;47868;51.326;6.550;2022-10-17T13:38:28;7.68;;;4.38;;
61915;SDS011;47868;51.326;6.550;2022-10-17T13:40:56;7.95;;;3.70;;
61915;SDS011;47868;51.326;6.550;2022-10-17T13:43:22;5.13;;;3.85;;
61915;SDS011;47868;51.326;6.550;2022-10-17T13:45:56;8.63;;;3.75;;
61915;SDS011;47868;51.326;6.550;2022-10-17T13:48:25;12.02;;;4.63;;
61915;SDS011;47868;51.326;6.550;2022-10-17T13:50:59;12.75;;;4.10;;
61915;SDS011;47868;51.326;6.550;2022-10-17T13:53:34;11.32;;;4.00;;
61915;SDS011;47868;51.326;6.550;2022-10-17T13:58:31;10.70;;;3.92;;
61915;SDS011;47868;51.326;6.550;2022-10-17T14:00:59;12.95;;;4.30;;
61915;SDS011;47868;51.326;6.550;2022-10-17T14:03:25;7.85;;;3.38;;
61915;SDS011;47868;51.326;6.550;2022-10-17T14:06:02;4.90;;;3.53;;
61915;SDS011;47868;51.326;6.550;2022-10-17T14:08:28;8.70;;;4.10;;
61915;SDS011;47868;51.326;6.550;2022-10-17T14:10:56;11.75;;;3.80;;
61915;SDS011;47868;51.326;6.550;2022-10-17T14:13:23;10.80;;;4.32;;
61915;SDS011;47868;51.326;6.550;2022-10-17T14:15:50;8.45;;;4.90;;
61915;SDS011;47868;51.326;6.550;2022-10-17T14:18:18;8.30;;;3.85;;
61915;SDS011;47868;51.326;6.550;2022-10-17T14:20:45;9.18;;;4.07;;
61915;SDS011;47868;51.326;6.550;2022-10-17T14:26:21;8.77;;;4.00;;
61915;SDS011;47868;51.326;6.550;2022-10-17T14:29:19;9.93;;;4.07;;
61915;SDS011;47868;51.326;6.550;2022-10-17T14:31:36;12.43;;;4.40;;
61915;SDS011;47868;51.326;6.550;2022-10-17T14:34:02;11.30;;;4.50;;
61915;SDS011;47868;51.326;6.550;2022-10-17T14:36:30;9.60;;;4.38;;
61915;SDS011;47868;51.326;6.550;2022-10-17T14:38:56;9.95;;;4.80;;
61915;SDS011;47868;51.326;6.550;2022-10-17T14:41:25;5.40;;;4.03;;
61915;SDS011;47868;51.326;6.550;2022-10-17T14:43:52;12.18;;;4.60;;
61915;SDS011;47868;51.326;6.550;2022-10-17T14:46:18;12.00;;;5.22;;
61915;SDS011;47868;51.326;6.550;2022-10-17T14:48:44;8.95;;;4.50;;
61915;SDS011;47868;51.326;6.550;2022-10-17T14:51:12;8.65;;;4.78;;
61915;SDS011;47868;51.326;6.550;2022-10-17T14:53:39;8.13;;;4.40;;
61915;SDS011;47868;51.326;6.550;2022-10-17T14:59:07;12.35;;;5.18;;
61915;SDS011;47868;51.326;6.550;2022-10-17T15:01:35;7.55;;;5.00;;
61915;SDS011;47868;51.326;6.550;2022-10-17T15:04:01;10.48;;;5.40;;
61915;SDS011;47868;51.326;6.550;2022-10-17T15:06:31;11.15;;;5.40;;
61915;SDS011;47868;51.326;6.550;2022-10-17T15:08:58;9.48;;;5.35;;
61915;SDS011;47868;51.326;6.550;2022-10-17T15:11:24;10.68;;;5.28;;
61915;SDS011;47868;51.326;6.550;2022-10-17T15:13:50;11.30;;;4.97;;
61915;SDS011;47868;51.326;6.550;2022-10-17T15:16:20;9.68;;;5.78;;
61915;SDS011;47868;51.326;6.550;2022-10-17T15:18:47;9.70;;;5.32;;
61915;SDS011;47868;51.326;6.550;2022-10-17T15:21:14;10.85;;;5.25;;
61915;SDS011;47868;51.326;6.550;2022-10-17T15:23:41;17.70;;;5.68;;
61915;SDS011;47868;51.326;6.550;2022-10-17T15:26:12;12.18;;;6.15;;
61915;SDS011;47868;51.326;6.550;2022-10-17T15:28:38;11.98;;;5.70;;
61915;SDS011;47868;51.326;6.550;2022-10-17T15:31:04;12.02;;;5.78;;
61915;SDS011;47868;51.326;6.550;2022-10-17T15:33:30;7.63;;;5.95;;
61915;SDS011;47868;51.326;6.550;2022-10-17T15:35:56;10.48;;;6.18;;
61915;SDS011;47868;51.326;6.550;2022-10-17T15:38:22;14.35;;;6.70;;
61915;SDS011;47868;51.326;6.550;2022-10-17T15:40:48;9.25;;;6.13;;
61915;SDS011;47868;51.326;6.550;2022-10-17T15:43:16;10.63;;;6.53;;
61915;SDS011;47868;51.326;6.550;2022-10-17T15:45:42;13.00;;;6.60;;
61915;SDS011;47868;51.326;6.550;2022-10-17T15:48:13;14.15;;;6.88;;
61915;SDS011;47868;51.326;6.550;2022-10-17T15:50:40;10.63;;;6.57;;
61915;SDS011;47868;51.326;6.550;2022-10-17T15:53:10;10.88;;;6.70;;
61915;SDS011;47868;51.326;6.550;2022-10-17T15:55:36;10.52;;;6.78;;
61915;SDS011;47868;51.326;6.550;2022-10-17T15:58:02;9.75;;;6.53;;
61915;SDS011;47868;51.326;6.550;2022-10-17T16:00:28;10.70;;;6.63;;
61915;SDS011;47868;51.326;6.550;2022-10-17T16:02:54;10.57;;;6.75;;
61915;SDS011;47868;51.326;6.550;2022-10-17T16:05:21;7.25;;;5.70;;
61915;SDS011;47868;51.326;6.550;2022-10-17T16:07:49;8.40;;;6.50;;
61915;SDS011;47868;51.326;6.550;2022-10-17T16:10:15;8.20;;;6.07;;
61915;SDS011;47868;51.326;6.550;2022-10-17T16:12:42;10.00;;;5.88;;
61915;SDS011;47868;51.326;6.550;2022-10-17T16:15:12;6.60;;;5.70;;
61915;SDS011;47868;51.326;6.550;2022-10-17T16:17:38;12.52;;;5.97;;
61915;SDS011;47868;51.326;6.550;2022-10-17T16:20:04;15.35;;;6.88;;
61915;SDS011;47868;51.326;6.550;2022-10-17T16:22:32;11.05;;;6.63;;
61915;SDS011;47868;51.326;6.550;2022-10-17T16:25:00;9.23;;;6.03;;
61915;SDS011;47868;51.326;6.550;2022-10-17T16:27:33;10.00;;;6.18;;
61915;SDS011;47868;51.326;6.550;2022-10-17T16:29:59;9.98;;;6.50;;
61915;SDS011;47868;51.326;6.550;2022-10-17T16:32:25;8.88;;;5.93;;
61915;SDS011;47868;51.326;6.550;2022-10-17T16:34:51;7.13;;;6.10;;
61915;SDS011;47868;51.326;6.550;2022-10-17T16:37:17;7.30;;;5.70;;
61915;SDS011;47868;51.326;6.550;2022-10-17T16:39:43;7.18;;;6.57;;